sensor_id;sensor_type;location;lat;lon;timestamp;P1;durP1;ratioP1;P2;durP2;ratioP2
75408;SDS011;63979;55.644;37.734;2023-07-24T00:01:02;3.38;;;2.72;;
75408;SDS011;63979;55.644;37.734;2023-07-24T00:06:03;5.28;;;2.85;;
75408;SDS011;63979;55.644;37.734;2023-07-24T00:11:07;4.07;;;2.90;;
75408;SDS011;63979;55.644;37.734;2023-07-24T00:16:09;4.55;;;3.20;;
75408;SDS011;63979;55.644;37.734;2023-07-24T00:21:10;4.75;;;2.63;;
75408;SDS011;63979;55.644;37.734;2023-07-24T00:26:13;4.13;;;3.72;;
75408;SDS011;63979;55.644;37.734;2023-07-24T00:31:15;3.83;;;3.05;;
75408;SDS011;63979;55.644;37.734;2023-07-24T00:36:16;5.07;;;3.53;;
75408;SDS011;63979;55.644;37.734;2023-07-24T00:41:16;6.93;;;3.65;;
75408;SDS011;63979;55.644;37.734;2023-07-24T00:46:17;4.07;;;3.67;;
75408;SDS011;63979;55.644;37.734;2023-07-24T00:51:18;4.32;;;3.45;;
75408;SDS011;63979;55.644;37.734;2023-07-24T00:56:20;3.45;;;3.13;;
75408;SDS011;63979;55.644;37.734;2023-07-24T01:01:22;6.03;;;3.97;;
75408;SDS011;63979;55.644;37.734;2023-07-24T01:11:25;6.90;;;4.00;;
75408;SDS011;63979;55.644;37.734;2023-07-24T01:16:33;5.68;;;3.90;;
75408;SDS011;63979;55.644;37.734;2023-07-24T01:22:15;3.38;;;3.03;;
75408;SDS011;63979;55.644;37.734;2023-07-24T01:27:26;5.35;;;3.85;;
75408;SDS011;63979;55.644;37.734;2023-07-24T01:32:27;8.32;;;4.82;;
75408;SDS011;63979;55.644;37.734;2023-07-24T01:37:29;4.88;;;3.40;;
75408;SDS011;63979;55.644;37.734;2023-07-24T01:42:31;4.68;;;3.63;;
75408;SDS011;63979;55.644;37.734;2023-07-24T01:47:33;2.95;;;2.70;;
75408;SDS011;63979;55.644;37.734;2023-07-24T01:52:35;4.03;;;3.15;;
75408;SDS011;63979;55.644;37.734;2023-07-24T01:57:36;6.53;;;3.33;;
75408;SDS011;63979;55.644;37.734;2023-07-24T02:02:37;4.97;;;2.92;;
75408;SDS011;63979;55.644;37.734;2023-07-24T02:07:38;4.40;;;3.17;;
75408;SDS011;63979;55.644;37.734;2023-07-24T02:12:39;4.90;;;3.65;;
75408;SDS011;63979;55.644;37.734;2023-07-24T02:17:40;5.18;;;3.05;;
75408;SDS011;63979;55.644;37.734;2023-07-24T02:22:43;4.85;;;4.10;;
75408;SDS011;63979;55.644;37.734;2023-07-24T02:27:44;6.47;;;4.05;;
75408;SDS011;63979;55.644;37.734;2023-07-24T02:32:45;7.15;;;5.38;;
75408;SDS011;63979;55.644;37.734;2023-07-24T02:37:46;6.47;;;4.57;;
75408;SDS011;63979;55.644;37.734;2023-07-24T02:42:47;5.57;;;3.30;;
75408;SDS011;63979;55.644;37.734;2023-07-24T02:47:48;10.32;;;5.53;;
75408;SDS011;63979;55.644;37.734;2023-07-24T02:52:49;6.28;;;3.80;;
75408;SDS011;63979;55.644;37.734;2023-07-24T02:57:50;5.32;;;3.70;;
75408;SDS011;63979;55.644;37.734;2023-07-24T03:02:52;5.82;;;3.92;;
75408;SDS011;63979;55.644;37.734;2023-07-24T03:07:53;4.82;;;2.85;;
75408;SDS011;63979;55.644;37.734;2023-07-24T03:12:54;5.47;;;3.28;;
75408;SDS011;63979;55.644;37.734;2023-07-24T03:17:55;6.00;;;3.03;;
75408;SDS011;63979;55.644;37.734;2023-07-24T03:22:56;3.95;;;3.50;;
75408;SDS011;63979;55.644;37.734;2023-07-24T03:27:57;9.43;;;3.85;;
75408;SDS011;63979;55.644;37.734;2023-07-24T03:32:58;7.80;;;4.75;;
75408;SDS011;63979;55.644;37.734;2023-07-24T03:37:59;10.02;;;3.88;;
75408;SDS011;63979;55.644;37.734;2023-07-24T03:43:00;14.93;;;5.03;;
75408;SDS011;63979;55.644;37.734;2023-07-24T03:48:01;5.72;;;3.75;;
75408;SDS011;63979;55.644;37.734;2023-07-24T03:53:03;8.98;;;3.72;;
75408;SDS011;63979;55.644;37.734;2023-07-24T03:58:04;3.97;;;3.58;;
75408;SDS011;63979;55.644;37.734;2023-07-24T04:03:05;4.30;;;3.15;;
75408;SDS011;63979;55.644;37.734;2023-07-24T04:08:09;7.80;;;3.88;;
75408;SDS011;63979;55.644;37.734;2023-07-24T04:13:10;4.03;;;2.65;;
75408;SDS011;63979;55.644;37.734;2023-07-24T04:18:11;5.53;;;3.00;;
75408;SDS011;63979;55.644;37.734;2023-07-24T04:23:13;4.97;;;3.78;;
75408;SDS011;63979;55.644;37.734;2023-07-24T04:28:14;4.30;;;3.22;;
75408;SDS011;63979;55.644;37.734;2023-07-24T04:33:15;5.45;;;2.67;;
75408;SDS011;63979;55.644;37.734;2023-07-24T04:38:16;5.53;;;3.35;;
75408;SDS011;63979;55.644;37.734;2023-07-24T04:43:17;7.40;;;3.28;;
75408;SDS011;63979;55.644;37.734;2023-07-24T04:48:19;5.25;;;3.30;;
75408;SDS011;63979;55.644;37.734;2023-07-24T04:53:20;5.60;;;2.95;;
75408;SDS011;63979;55.644;37.734;2023-07-24T04:58:21;5.60;;;2.70;;
75408;SDS011;63979;55.644;37.734;2023-07-24T05:03:22;3.55;;;2.75;;
75408;SDS011;63979;55.644;37.734;2023-07-24T05:08:23;2.42;;;2.22;;
75408;SDS011;63979;55.644;37.734;2023-07-24T05:13:25;6.75;;;3.35;;
75408;SDS011;63979;55.644;37.734;2023-07-24T05:18:27;5.50;;;2.55;;
75408;SDS011;63979;55.644;37.734;2023-07-24T05:23:28;3.05;;;2.25;;
75408;SDS011;63979;55.644;37.734;2023-07-24T05:28:30;3.90;;;2.10;;
75408;SDS011;63979;55.644;37.734;2023-07-24T05:33:32;2.83;;;2.10;;
75408;SDS011;63979;55.644;37.734;2023-07-24T05:38:33;3.60;;;2.30;;
75408;SDS011;63979;55.644;37.734;2023-07-24T05:43:34;3.58;;;2.00;;
75408;SDS011;63979;55.644;37.734;2023-07-24T05:48:35;2.78;;;1.73;;
75408;SDS011;63979;55.644;37.734;2023-07-24T05:53:36;6.47;;;2.50;;
75408;SDS011;63979;55.644;37.734;2023-07-24T05:58:37;2.50;;;1.50;;
75408;SDS011;63979;55.644;37.734;2023-07-24T06:03:38;4.07;;;1.92;;
75408;SDS011;63979;55.644;37.734;2023-07-24T06:08:39;2.25;;;1.85;;
75408;SDS011;63979;55.644;37.734;2023-07-24T06:13:40;4.07;;;1.65;;
75408;SDS011;63979;55.644;37.734;2023-07-24T06:23:43;2.80;;;2.05;;
75408;SDS011;63979;55.644;37.734;2023-07-24T06:28:44;4.78;;;1.83;;
75408;SDS011;63979;55.644;37.734;2023-07-24T06:33:45;1.98;;;1.30;;
75408;SDS011;63979;55.644;37.734;2023-07-24T06:38:46;1.92;;;1.50;;
75408;SDS011;63979;55.644;37.734;2023-07-24T06:43:48;2.95;;;1.90;;
75408;SDS011;63979;55.644;37.734;2023-07-24T06:48:50;2.40;;;1.60;;
75408;SDS011;63979;55.644;37.734;2023-07-24T06:58:51;5.55;;;1.42;;
75408;SDS011;63979;55.644;37.734;2023-07-24T07:03:52;3.88;;;1.20;;
75408;SDS011;63979;55.644;37.734;2023-07-24T07:08:53;4.95;;;1.33;;
75408;SDS011;63979;55.644;37.734;2023-07-24T07:18:55;2.03;;;1.42;;
75408;SDS011;63979;55.644;37.734;2023-07-24T07:23:59;3.30;;;1.20;;
75408;SDS011;63979;55.644;37.734;2023-07-24T07:34:01;2.63;;;1.33;;
75408;SDS011;63979;55.644;37.734;2023-07-24T07:39:02;1.95;;;1.10;;
75408;SDS011;63979;55.644;37.734;2023-07-24T07:44:03;2.63;;;1.20;;
75408;SDS011;63979;55.644;37.734;2023-07-24T07:54:05;2.72;;;1.58;;
75408;SDS011;63979;55.644;37.734;2023-07-24T07:59:06;2.03;;;1.67;;
75408;SDS011;63979;55.644;37.734;2023-07-24T08:04:07;1.75;;;1.60;;
75408;SDS011;63979;55.644;37.734;2023-07-24T08:09:08;3.13;;;1.73;;
75408;SDS011;63979;55.644;37.734;2023-07-24T08:14:09;1.90;;;1.42;;
75408;SDS011;63979;55.644;37.734;2023-07-24T08:19:10;3.17;;;1.70;;
75408;SDS011;63979;55.644;37.734;2023-07-24T08:24:11;2.55;;;1.63;;
75408;SDS011;63979;55.644;37.734;2023-07-24T08:29:12;2.92;;;1.30;;
75408;SDS011;63979;55.644;37.734;2023-07-24T08:39:14;3.33;;;2.15;;
75408;SDS011;63979;55.644;37.734;2023-07-24T08:44:15;4.63;;;2.10;;
75408;SDS011;63979;55.644;37.734;2023-07-24T08:49:17;2.25;;;1.67;;
75408;SDS011;63979;55.644;37.734;2023-07-24T08:54:19;3.53;;;2.17;;
75408;SDS011;63979;55.644;37.734;2023-07-24T08:59:21;4.55;;;1.70;;
75408;SDS011;63979;55.644;37.734;2023-07-24T09:09:22;6.25;;;2.30;;
75408;SDS011;63979;55.644;37.734;2023-07-24T09:14:24;4.72;;;2.03;;
75408;SDS011;63979;55.644;37.734;2023-07-24T09:19:26;2.28;;;1.98;;
75408;SDS011;63979;55.644;37.734;2023-07-24T09:29:32;2.58;;;2.05;;
75408;SDS011;63979;55.644;37.734;2023-07-24T09:34:34;11.30;;;2.70;;
75408;SDS011;63979;55.644;37.734;2023-07-24T09:39:43;3.10;;;2.80;;
75408;SDS011;63979;55.644;37.734;2023-07-24T09:44:47;2.90;;;2.10;;
75408;SDS011;63979;55.644;37.734;2023-07-24T09:49:48;3.58;;;2.17;;
75408;SDS011;63979;55.644;37.734;2023-07-24T10:00:00;2.72;;;2.53;;
75408;SDS011;63979;55.644;37.734;2023-07-24T10:05:08;2.55;;;2.35;;
75408;SDS011;63979;55.644;37.734;2023-07-24T10:10:09;3.40;;;2.60;;
75408;SDS011;63979;55.644;37.734;2023-07-24T10:15:11;2.80;;;2.55;;
75408;SDS011;63979;55.644;37.734;2023-07-24T10:20:15;3.90;;;2.42;;
75408;SDS011;63979;55.644;37.734;2023-07-24T10:25:17;3.53;;;2.75;;
75408;SDS011;63979;55.644;37.734;2023-07-24T10:30:27;3.75;;;2.50;;
75408;SDS011;63979;55.644;37.734;2023-07-24T10:35:44;5.75;;;3.08;;
75408;SDS011;63979;55.644;37.734;2023-07-24T10:40:48;3.63;;;2.55;;
75408;SDS011;63979;55.644;37.734;2023-07-24T10:46:02;3.20;;;2.35;;
75408;SDS011;63979;55.644;37.734;2023-07-24T10:51:07;3.60;;;3.08;;
75408;SDS011;63979;55.644;37.734;2023-07-24T10:56:09;3.15;;;2.60;;
75408;SDS011;63979;55.644;37.734;2023-07-24T11:01:10;3.88;;;2.67;;
75408;SDS011;63979;55.644;37.734;2023-07-24T11:11:17;3.83;;;2.90;;
75408;SDS011;63979;55.644;37.734;2023-07-24T11:16:18;3.05;;;2.80;;
75408;SDS011;63979;55.644;37.734;2023-07-24T11:21:19;4.15;;;2.60;;
75408;SDS011;63979;55.644;37.734;2023-07-24T11:26:24;3.00;;;2.60;;
75408;SDS011;63979;55.644;37.734;2023-07-24T11:31:27;3.92;;;2.90;;
75408;SDS011;63979;55.644;37.734;2023-07-24T11:36:38;3.95;;;2.60;;
75408;SDS011;63979;55.644;37.734;2023-07-24T11:41:39;3.92;;;2.40;;
75408;SDS011;63979;55.644;37.734;2023-07-24T11:46:40;2.45;;;2.25;;
75408;SDS011;63979;55.644;37.734;2023-07-24T11:51:41;3.83;;;2.92;;
75408;SDS011;63979;55.644;37.734;2023-07-24T11:56:43;4.70;;;3.45;;
75408;SDS011;63979;55.644;37.734;2023-07-24T12:01:47;4.53;;;3.97;;
75408;SDS011;63979;55.644;37.734;2023-07-24T12:06:48;3.40;;;3.10;;
75408;SDS011;63979;55.644;37.734;2023-07-24T12:11:49;2.45;;;2.17;;
75408;SDS011;63979;55.644;37.734;2023-07-24T12:17:03;5.07;;;3.40;;
75408;SDS011;63979;55.644;37.734;2023-07-24T12:22:10;5.47;;;3.60;;
75408;SDS011;63979;55.644;37.734;2023-07-24T12:27:11;5.40;;;3.95;;
75408;SDS011;63979;55.644;37.734;2023-07-24T12:32:12;3.05;;;2.67;;
75408;SDS011;63979;55.644;37.734;2023-07-24T12:37:14;7.40;;;4.57;;
75408;SDS011;63979;55.644;37.734;2023-07-24T12:42:15;4.50;;;4.10;;
75408;SDS011;63979;55.644;37.734;2023-07-24T12:52:17;4.63;;;3.78;;
75408;SDS011;63979;55.644;37.734;2023-07-24T12:57:18;7.18;;;4.07;;
75408;SDS011;63979;55.644;37.734;2023-07-24T13:02:19;6.13;;;4.80;;
75408;SDS011;63979;55.644;37.734;2023-07-24T13:07:20;5.03;;;3.97;;
75408;SDS011;63979;55.644;37.734;2023-07-24T13:12:21;7.00;;;5.18;;
75408;SDS011;63979;55.644;37.734;2023-07-24T13:17:22;6.82;;;5.03;;
75408;SDS011;63979;55.644;37.734;2023-07-24T13:22:24;4.47;;;3.50;;
75408;SDS011;63979;55.644;37.734;2023-07-24T13:27:26;5.13;;;4.63;;
75408;SDS011;63979;55.644;37.734;2023-07-24T13:32:27;5.63;;;4.78;;
75408;SDS011;63979;55.644;37.734;2023-07-24T13:37:30;5.85;;;5.25;;
75408;SDS011;63979;55.644;37.734;2023-07-24T13:42:31;6.18;;;5.05;;
75408;SDS011;63979;55.644;37.734;2023-07-24T13:47:32;6.32;;;4.97;;
75408;SDS011;63979;55.644;37.734;2023-07-24T13:52:33;8.65;;;4.88;;
75408;SDS011;63979;55.644;37.734;2023-07-24T13:57:34;9.20;;;5.30;;
75408;SDS011;63979;55.644;37.734;2023-07-24T14:02:35;8.48;;;5.53;;
75408;SDS011;63979;55.644;37.734;2023-07-24T14:07:36;7.88;;;5.53;;
75408;SDS011;63979;55.644;37.734;2023-07-24T14:12:37;4.72;;;4.15;;
75408;SDS011;63979;55.644;37.734;2023-07-24T14:17:39;5.97;;;4.43;;
75408;SDS011;63979;55.644;37.734;2023-07-24T14:22:41;4.50;;;4.10;;
75408;SDS011;63979;55.644;37.734;2023-07-24T14:27:42;5.80;;;3.88;;
75408;SDS011;63979;55.644;37.734;2023-07-24T14:32:43;5.88;;;4.57;;
75408;SDS011;63979;55.644;37.734;2023-07-24T14:37:45;5.07;;;4.05;;
75408;SDS011;63979;55.644;37.734;2023-07-24T14:42:46;5.75;;;4.45;;
75408;SDS011;63979;55.644;37.734;2023-07-24T14:47:47;4.45;;;4.03;;
75408;SDS011;63979;55.644;37.734;2023-07-24T14:52:49;7.00;;;5.07;;
75408;SDS011;63979;55.644;37.734;2023-07-24T14:57:50;5.38;;;3.97;;
75408;SDS011;63979;55.644;37.734;2023-07-24T15:02:51;7.80;;;5.43;;
75408;SDS011;63979;55.644;37.734;2023-07-24T15:07:52;7.25;;;5.38;;
75408;SDS011;63979;55.644;37.734;2023-07-24T15:12:53;6.63;;;5.43;;
75408;SDS011;63979;55.644;37.734;2023-07-24T15:17:55;6.68;;;5.25;;
75408;SDS011;63979;55.644;37.734;2023-07-24T15:22:56;7.35;;;5.07;;
75408;SDS011;63979;55.644;37.734;2023-07-24T15:27:57;8.55;;;4.78;;
75408;SDS011;63979;55.644;37.734;2023-07-24T15:32:58;6.47;;;4.75;;
75408;SDS011;63979;55.644;37.734;2023-07-24T15:37:59;8.23;;;5.65;;
75408;SDS011;63979;55.644;37.734;2023-07-24T15:43:02;7.80;;;4.55;;
75408;SDS011;63979;55.644;37.734;2023-07-24T15:48:03;6.32;;;5.15;;
75408;SDS011;63979;55.644;37.734;2023-07-24T15:53:05;5.63;;;4.50;;
75408;SDS011;63979;55.644;37.734;2023-07-24T16:03:06;5.70;;;4.15;;
75408;SDS011;63979;55.644;37.734;2023-07-24T16:08:08;7.05;;;4.97;;
75408;SDS011;63979;55.644;37.734;2023-07-24T16:13:09;4.80;;;4.28;;
75408;SDS011;63979;55.644;37.734;2023-07-24T16:18:10;6.93;;;4.97;;
75408;SDS011;63979;55.644;37.734;2023-07-24T16:23:11;6.20;;;4.45;;
75408;SDS011;63979;55.644;37.734;2023-07-24T16:28:12;5.03;;;4.53;;
75408;SDS011;63979;55.644;37.734;2023-07-24T16:33:13;6.43;;;4.80;;
75408;SDS011;63979;55.644;37.734;2023-07-24T16:38:14;8.50;;;5.15;;
75408;SDS011;63979;55.644;37.734;2023-07-24T16:43:15;7.05;;;5.00;;
75408;SDS011;63979;55.644;37.734;2023-07-24T16:48:16;6.72;;;4.72;;
75408;SDS011;63979;55.644;37.734;2023-07-24T16:53:18;8.40;;;5.97;;
75408;SDS011;63979;55.644;37.734;2023-07-24T16:58:19;8.43;;;5.68;;
75408;SDS011;63979;55.644;37.734;2023-07-24T17:03:20;9.60;;;5.40;;
75408;SDS011;63979;55.644;37.734;2023-07-24T17:08:21;8.23;;;5.07;;
75408;SDS011;63979;55.644;37.734;2023-07-24T17:13:22;11.07;;;5.05;;
75408;SDS011;63979;55.644;37.734;2023-07-24T17:18:23;9.13;;;5.85;;
75408;SDS011;63979;55.644;37.734;2023-07-24T17:23:24;6.97;;;5.88;;
75408;SDS011;63979;55.644;37.734;2023-07-24T17:28:25;11.93;;;6.20;;
75408;SDS011;63979;55.644;37.734;2023-07-24T17:33:26;9.30;;;6.03;;
75408;SDS011;63979;55.644;37.734;2023-07-24T17:38:28;7.82;;;5.38;;
75408;SDS011;63979;55.644;37.734;2023-07-24T17:43:30;8.50;;;5.28;;
75408;SDS011;63979;55.644;37.734;2023-07-24T17:48:31;8.30;;;4.97;;
75408;SDS011;63979;55.644;37.734;2023-07-24T17:53:32;6.15;;;4.70;;
75408;SDS011;63979;55.644;37.734;2023-07-24T17:58:33;6.65;;;5.72;;
75408;SDS011;63979;55.644;37.734;2023-07-24T18:08:35;8.90;;;5.68;;
75408;SDS011;63979;55.644;37.734;2023-07-24T18:13:37;7.72;;;6.20;;
75408;SDS011;63979;55.644;37.734;2023-07-24T18:18:38;14.43;;;5.95;;
75408;SDS011;63979;55.644;37.734;2023-07-24T18:23:39;7.18;;;5.75;;
75408;SDS011;63979;55.644;37.734;2023-07-24T18:28:40;8.45;;;5.97;;
75408;SDS011;63979;55.644;37.734;2023-07-24T18:33:41;7.75;;;4.90;;
75408;SDS011;63979;55.644;37.734;2023-07-24T18:38:42;8.93;;;5.82;;
75408;SDS011;63979;55.644;37.734;2023-07-24T18:43:43;7.85;;;5.95;;
75408;SDS011;63979;55.644;37.734;2023-07-24T18:48:44;11.23;;;7.10;;
75408;SDS011;63979;55.644;37.734;2023-07-24T18:53:45;8.55;;;7.35;;
75408;SDS011;63979;55.644;37.734;2023-07-24T18:58:47;12.52;;;8.07;;
75408;SDS011;63979;55.644;37.734;2023-07-24T19:03:49;9.40;;;7.53;;
75408;SDS011;63979;55.644;37.734;2023-07-24T19:08:50;8.50;;;6.55;;
75408;SDS011;63979;55.644;37.734;2023-07-24T19:13:52;9.40;;;6.18;;
75408;SDS011;63979;55.644;37.734;2023-07-24T19:18:53;9.13;;;7.65;;
75408;SDS011;63979;55.644;37.734;2023-07-24T19:23:54;11.27;;;6.97;;
75408;SDS011;63979;55.644;37.734;2023-07-24T19:28:55;7.93;;;7.07;;
75408;SDS011;63979;55.644;37.734;2023-07-24T19:33:57;11.68;;;7.80;;
75408;SDS011;63979;55.644;37.734;2023-07-24T19:38:58;10.20;;;6.82;;
75408;SDS011;63979;55.644;37.734;2023-07-24T19:43:59;8.73;;;7.03;;
75408;SDS011;63979;55.644;37.734;2023-07-24T19:49:01;14.15;;;7.60;;
75408;SDS011;63979;55.644;37.734;2023-07-24T19:54:03;10.02;;;7.18;;
75408;SDS011;63979;55.644;37.734;2023-07-24T19:59:04;8.73;;;7.43;;
75408;SDS011;63979;55.644;37.734;2023-07-24T20:04:05;9.65;;;6.28;;
75408;SDS011;63979;55.644;37.734;2023-07-24T20:09:06;6.63;;;5.93;;
75408;SDS011;63979;55.644;37.734;2023-07-24T20:14:09;8.82;;;6.97;;
75408;SDS011;63979;55.644;37.734;2023-07-24T20:19:10;7.72;;;6.35;;
75408;SDS011;63979;55.644;37.734;2023-07-24T20:24:11;12.65;;;6.25;;
75408;SDS011;63979;55.644;37.734;2023-07-24T20:29:13;10.88;;;6.03;;
75408;SDS011;63979;55.644;37.734;2023-07-24T20:34:14;9.85;;;8.68;;
75408;SDS011;63979;55.644;37.734;2023-07-24T20:39:15;10.25;;;7.78;;
75408;SDS011;63979;55.644;37.734;2023-07-24T20:44:18;11.05;;;8.52;;
75408;SDS011;63979;55.644;37.734;2023-07-24T20:49:19;12.55;;;7.65;;
75408;SDS011;63979;55.644;37.734;2023-07-24T20:54:20;12.02;;;8.63;;
75408;SDS011;63979;55.644;37.734;2023-07-24T20:59:21;14.00;;;7.70;;
75408;SDS011;63979;55.644;37.734;2023-07-24T21:04:23;13.38;;;8.60;;
75408;SDS011;63979;55.644;37.734;2023-07-24T21:09:24;7.88;;;6.57;;
75408;SDS011;63979;55.644;37.734;2023-07-24T21:14:25;8.68;;;6.93;;
75408;SDS011;63979;55.644;37.734;2023-07-24T21:19:26;13.68;;;8.70;;
75408;SDS011;63979;55.644;37.734;2023-07-24T21:24:27;10.88;;;6.78;;
75408;SDS011;63979;55.644;37.734;2023-07-24T21:29:29;12.80;;;7.40;;
75408;SDS011;63979;55.644;37.734;2023-07-24T21:34:30;10.88;;;7.57;;
75408;SDS011;63979;55.644;37.734;2023-07-24T21:39:31;11.75;;;7.95;;
75408;SDS011;63979;55.644;37.734;2023-07-24T21:44:33;13.20;;;8.15;;
75408;SDS011;63979;55.644;37.734;2023-07-24T21:49:34;11.25;;;7.63;;
75408;SDS011;63979;55.644;37.734;2023-07-24T21:54:36;10.30;;;7.20;;
75408;SDS011;63979;55.644;37.734;2023-07-24T21:59:38;13.70;;;7.35;;
75408;SDS011;63979;55.644;37.734;2023-07-24T22:04:39;12.25;;;8.63;;
75408;SDS011;63979;55.644;37.734;2023-07-24T22:09:41;16.20;;;7.65;;
75408;SDS011;63979;55.644;37.734;2023-07-24T22:14:42;11.10;;;7.88;;
75408;SDS011;63979;55.644;37.734;2023-07-24T22:19:43;11.18;;;7.40;;
75408;SDS011;63979;55.644;37.734;2023-07-24T22:24:44;10.45;;;7.97;;
75408;SDS011;63979;55.644;37.734;2023-07-24T22:29:46;11.73;;;9.48;;
75408;SDS011;63979;55.644;37.734;2023-07-24T22:34:48;11.98;;;7.93;;
75408;SDS011;63979;55.644;37.734;2023-07-24T22:39:51;14.00;;;8.82;;
75408;SDS011;63979;55.644;37.734;2023-07-24T22:44:53;11.40;;;7.95;;
75408;SDS011;63979;55.644;37.734;2023-07-24T22:49:53;11.40;;;7.22;;
75408;SDS011;63979;55.644;37.734;2023-07-24T22:54:55;11.00;;;7.40;;
75408;SDS011;63979;55.644;37.734;2023-07-24T22:59:56;11.77;;;8.20;;
75408;SDS011;63979;55.644;37.734;2023-07-24T23:04:57;9.73;;;7.88;;
75408;SDS011;63979;55.644;37.734;2023-07-24T23:09:57;11.23;;;9.07;;
75408;SDS011;63979;55.644;37.734;2023-07-24T23:14:59;12.25;;;8.70;;
75408;SDS011;63979;55.644;37.734;2023-07-24T23:20:00;15.10;;;8.43;;
75408;SDS011;63979;55.644;37.734;2023-07-24T23:25:01;14.98;;;8.43;;
75408;SDS011;63979;55.644;37.734;2023-07-24T23:30:03;15.30;;;10.77;;
75408;SDS011;63979;55.644;37.734;2023-07-24T23:35:05;17.75;;;13.18;;
75408;SDS011;63979;55.644;37.734;2023-07-24T23:40:07;17.92;;;13.23;;
75408;SDS011;63979;55.644;37.734;2023-07-24T23:45:09;19.75;;;14.23;;
75408;SDS011;63979;55.644;37.734;2023-07-24T23:50:11;20.23;;;11.98;;
75408;SDS011;63979;55.644;37.734;2023-07-24T23:55:12;17.73;;;11.52;;
